Time;durP1;ratioP1;P1;durP2;ratioP2;P2;SDS_P1;SDS_P2;PMS_P1;PMS_P2;Temp;Humidity;BMP_temperature;BMP_pressure;BME280_temperature;BME280_humidity;BME280_pressure;Samples;Min_cycle;Max_cycle;Signal;HPM_P1;HPM_P2
2021/01/28 00:00:37;;;;;;;10.38;9.38;;;3.40;99.90;;;;;;5032959;28;20212;-58
2021/01/28 00:03:07;;;;;;;10.95;9.95;;;3.40;99.90;;;;;;5045505;28;20559;-59
2021/01/28 00:05:37;;;;;;;10.93;9.93;;;3.40;99.90;;;;;;5053088;28;20289;-60
2021/01/28 00:08:06;;;;;;;11.27;10.18;;;3.40;99.90;;;;;;5052777;28;20208;-52
2021/01/28 00:10:33;;;;;;;10.70;9.70;;;3.50;99.90;;;;;;5052969;28;20224;-56
2021/01/28 00:13:01;;;;;;;10.00;9.13;;;3.50;99.90;;;;;;5052762;28;20219;-57
2021/01/28 00:15:31;;;;;;;9.38;8.50;;;3.60;99.90;;;;;;5053018;28;20216;-60
2021/01/28 00:18:00;;;;;;;10.63;9.70;;;3.60;99.90;;;;;;5052861;28;20219;-59
2021/01/28 00:20:31;;;;;;;56.88;41.42;;;3.60;99.90;;;;;;5052761;28;20212;-58
2021/01/28 00:22:59;;;;;;;10.90;9.87;;;3.70;99.90;;;;;;5052735;28;20227;-58
2021/01/28 00:25:27;;;;;;;10.38;9.43;;;3.70;99.90;;;;;;5052846;28;20204;-59
2021/01/28 00:27:54;;;;;;;10.73;9.63;;;3.70;99.90;;;;;;5052667;28;20228;-57
2021/01/28 00:30:23;;;;;;;10.52;9.52;;;3.80;99.90;;;;;;5052283;28;20251;-61
2021/01/28 00:32:51;;;;;;;10.20;9.20;;;3.80;99.90;;;;;;5052333;28;20212;-59
2021/01/28 00:35:24;;;;;;;10.35;9.35;;;3.90;99.90;;;;;;5051649;28;20275;-58
2021/01/28 00:37:52;;;;;;;10.85;9.85;;;3.90;99.90;;;;;;5052724;28;20219;-58
2021/01/28 00:40:20;;;;;;;10.32;9.32;;;3.90;99.90;;;;;;5052294;28;20204;-58
2021/01/28 00:42:48;;;;;;;18.73;14.60;;;3.90;99.90;;;;;;5052029;28;20216;-59
2021/01/28 00:45:16;;;;;;;11.23;10.17;;;3.90;99.90;;;;;;5052216;28;20212;-57
2021/01/28 00:47:44;;;;;;;10.43;9.32;;;3.90;99.90;;;;;;5051985;28;20219;-60
2021/01/28 00:50:12;;;;;;;9.65;8.52;;;3.90;99.90;;;;;;5052107;28;20228;-55
2021/01/28 00:52:40;;;;;;;18.95;13.95;;;3.90;99.90;;;;;;5051982;28;20204;-57
2021/01/28 00:55:11;;;;;;;15.30;12.75;;;3.90;99.90;;;;;;5052059;28;20291;-57
2021/01/28 00:57:38;;;;;;;9.93;9.02;;;3.90;99.90;;;;;;5051998;28;20211;-55
2021/01/28 01:00:10;;;;;;;17.10;13.18;;;4.00;99.90;;;;;;5051939;28;20200;-58
2021/01/28 01:02:37;;;;;;;17.92;13.38;;;3.90;99.90;;;;;;5052137;28;20234;-56
2021/01/28 01:05:05;;;;;;;9.85;8.93;;;3.90;99.90;;;;;;5052100;28;20208;-57
2021/01/28 01:07:36;;;;;;;9.15;8.35;;;3.90;99.90;;;;;;5052154;28;20208;-57
2021/01/28 01:10:05;;;;;;;8.93;8.13;;;4.00;99.90;;;;;;5051879;28;20232;-60
2021/01/28 01:12:32;;;;;;;9.93;9.02;;;4.00;99.90;;;;;;5051740;28;20269;-57
2021/01/28 01:14:59;;;;;;;8.67;7.87;;;4.00;99.90;;;;;;5051640;28;20278;-57
2021/01/28 01:17:27;;;;;;;9.77;8.70;;;4.00;99.90;;;;;;5051637;28;20210;-55
2021/01/28 01:19:54;;;;;;;8.93;8.13;;;4.00;99.90;;;;;;5051840;28;20295;-58
2021/01/28 01:22:21;;;;;;;9.23;8.43;;;4.00;99.90;;;;;;5051614;28;20250;-57
2021/01/28 01:24:48;;;;;;;14.02;10.18;;;4.00;99.90;;;;;;5051631;28;20575;-58
2021/01/28 01:27:15;;;;;;;9.20;8.40;;;4.00;99.90;;;;;;5051554;28;20211;-56
2021/01/28 01:29:42;;;;;;;11.65;8.63;;;4.00;99.90;;;;;;5051394;28;20710;-58
2021/01/28 01:32:10;;;;;;;8.20;7.40;;;4.00;99.90;;;;;;5051395;28;20297;-57
2021/01/28 01:34:37;;;;;;;8.85;8.05;;;4.00;99.90;;;;;;5051725;28;20218;-60
2021/01/28 01:37:04;;;;;;;9.20;8.30;;;4.00;99.90;;;;;;5051572;28;20231;-55
2021/01/28 01:39:31;;;;;;;8.60;7.90;;;4.00;99.90;;;;;;5051491;28;20661;-58
2021/01/28 01:41:58;;;;;;;8.10;7.30;;;4.10;99.90;;;;;;5051773;28;20623;-58
2021/01/28 01:44:25;;;;;;;8.38;7.65;;;4.10;99.90;;;;;;5051658;28;20208;-58
2021/01/28 01:46:58;;;;;;;8.50;7.80;;;4.10;99.90;;;;;;5053639;28;20219;-59
2021/01/28 01:49:26;;;;;;;8.87;7.97;;;4.10;99.90;;;;;;5055640;28;20228;-56
2021/01/28 01:51:55;;;;;;;7.90;7.20;;;4.10;99.90;;;;;;5055439;28;20220;-54
2021/01/28 01:54:26;;;;;;;8.05;7.28;;;4.10;99.90;;;;;;5055287;28;20307;-54
2021/01/28 01:56:57;;;;;;;7.93;7.22;;;4.10;99.90;;;;;;5055812;28;20223;-56
2021/01/28 01:59:31;;;;;;;8.73;7.93;;;4.10;99.90;;;;;;5055402;28;20258;-57
2021/01/28 02:02:04;;;;;;;8.50;7.72;;;4.10;99.90;;;;;;5055414;28;20277;-56
2021/01/28 02:04:33;;;;;;;7.50;6.80;;;4.10;99.90;;;;;;5055173;28;20210;-53
2021/01/28 02:07:06;;;;;;;8.20;7.40;;;4.10;99.90;;;;;;5055192;28;20219;-58
2021/01/28 02:09:33;;;;;;;8.40;7.70;;;4.10;99.90;;;;;;5055109;28;20242;-56
2021/01/28 02:12:00;;;;;;;8.10;7.40;;;4.10;99.90;;;;;;5055027;28;20243;-56
2021/01/28 02:14:27;;;;;;;8.57;7.78;;;4.00;99.90;;;;;;5054891;28;20208;-58
2021/01/28 02:16:57;;;;;;;8.43;7.73;;;4.00;99.90;;;;;;5054870;28;20674;-57
2021/01/28 02:19:40;;;;;;;7.93;7.22;;;4.00;99.90;;;;;;5055165;28;20219;-59
2021/01/28 02:22:08;;;;;;;7.97;7.28;;;4.00;99.90;;;;;;5054983;28;20291;-58
2021/01/28 02:24:48;;;;;;;8.50;7.70;;;4.00;99.90;;;;;;5054876;28;20242;-58
2021/01/28 02:27:18;;;;;;;7.88;7.18;;;4.00;99.90;;;;;;5054792;28;20569;-58
2021/01/28 02:29:46;;;;;;;8.20;7.50;;;4.00;99.90;;;;;;5054408;28;20661;-53
2021/01/28 02:32:13;;;;;;;8.45;7.75;;;4.00;99.90;;;;;;5054383;28;20682;-58
2021/01/28 02:34:42;;;;;;;9.15;8.38;;;4.00;99.90;;;;;;5054503;28;20204;-55
2021/01/28 02:37:13;;;;;;;7.82;7.13;;;4.00;99.90;;;;;;5054717;28;20211;-54
2021/01/28 02:39:41;;;;;;;8.43;7.63;;;3.90;99.90;;;;;;5054454;28;20201;-57
2021/01/28 02:42:16;;;;;;;8.32;7.53;;;3.90;99.90;;;;;;5054231;28;20247;-58
2021/01/28 02:44:44;;;;;;;9.02;8.23;;;3.90;99.90;;;;;;5054603;28;20506;-59
2021/01/28 02:47:11;;;;;;;7.80;7.10;;;3.80;99.90;;;;;;5054620;28;20261;-57
2021/01/28 02:49:38;;;;;;;8.00;7.30;;;3.80;99.90;;;;;;5054064;28;20599;-57
2021/01/28 02:52:05;;;;;;;7.05;6.45;;;3.80;99.90;;;;;;5054438;28;20266;-59
2021/01/28 02:54:39;;;;;;;7.83;7.13;;;3.70;99.90;;;;;;5054102;28;20255;-58
2021/01/28 02:57:06;;;;;;;7.20;6.60;;;3.70;99.90;;;;;;5054136;28;20611;-57
2021/01/28 02:59:33;;;;;;;8.27;7.57;;;3.70;99.90;;;;;;5053387;28;20246;-59
2021/01/28 03:02:05;;;;;;;8.13;7.43;;;3.70;99.90;;;;;;5054026;28;20246;-55
2021/01/28 03:04:33;;;;;;;7.15;6.55;;;3.70;99.90;;;;;;5054024;28;20698;-59
2021/01/28 03:07:00;;;;;;;7.57;6.88;;;3.70;99.90;;;;;;5053991;28;20290;-59
2021/01/28 03:09:27;;;;;;;7.60;6.97;;;3.70;99.90;;;;;;5053798;28;20259;-57
2021/01/28 03:11:54;;;;;;;7.60;7.00;;;3.80;99.90;;;;;;5054203;28;20208;-59
2021/01/28 03:14:21;;;;;;;7.13;6.43;;;3.80;99.90;;;;;;5054194;28;20290;-59
2021/01/28 03:16:48;;;;;;;7.78;7.07;;;3.80;99.90;;;;;;5053934;28;20327;-57
2021/01/28 03:19:18;;;;;;;7.00;6.40;;;3.80;99.90;;;;;;5053816;28;20212;-59
2021/01/28 03:21:45;;;;;;;6.60;6.00;;;3.70;99.90;;;;;;5053589;28;20231;-54
2021/01/28 03:24:13;;;;;;;6.10;5.60;;;3.70;99.90;;;;;;5053833;28;20353;-58
2021/01/28 03:26:40;;;;;;;6.95;6.35;;;3.80;99.90;;;;;;5053944;28;20299;-53
2021/01/28 03:29:08;;;;;;;7.22;6.57;;;3.80;99.90;;;;;;5053588;28;20269;-57
2021/01/28 03:31:38;;;;;;;6.97;6.27;;;3.80;99.90;;;;;;5053290;28;20244;-58
2021/01/28 03:34:06;;;;;;;7.78;7.07;;;3.80;99.90;;;;;;5053473;28;20566;-60
2021/01/28 03:36:34;;;;;;;7.40;6.70;;;3.80;99.90;;;;;;5053344;28;20211;-58
2021/01/28 03:39:03;;;;;;;7.53;6.93;;;3.80;99.90;;;;;;5053470;28;20204;-58
2021/01/28 03:41:31;;;;;;;6.88;6.28;;;3.80;99.90;;;;;;5053536;28;20207;-56
2021/01/28 03:43:58;;;;;;;6.20;5.70;;;3.80;99.90;;;;;;5053560;28;20291;-58
2021/01/28 03:46:25;;;;;;;6.85;6.25;;;3.80;99.90;;;;;;5053242;28;20208;-59
2021/01/28 03:48:52;;;;;;;7.57;6.88;;;3.80;99.90;;;;;;5053158;28;20218;-60
2021/01/28 03:51:19;;;;;;;7.00;6.32;;;3.80;99.90;;;;;;5053918;28;20236;-58
2021/01/28 03:53:47;;;;;;;7.17;6.47;;;3.80;99.90;;;;;;5053517;28;20208;-59
2021/01/28 03:56:14;;;;;;;7.88;7.07;;;3.80;99.90;;;;;;5053256;28;20218;-57
2021/01/28 03:58:42;;;;;;;8.80;7.07;;;3.80;99.90;;;;;;5053175;28;20212;-56
2021/01/28 04:01:09;;;;;;;7.22;6.53;;;3.80;99.90;;;;;;5053125;28;20295;-59
2021/01/28 04:03:37;;;;;;;6.93;6.30;;;3.80;99.90;;;;;;5053083;28;20286;-58
2021/01/28 04:06:04;;;;;;;7.53;6.77;;;3.80;99.90;;;;;;5053086;28;20222;-59
2021/01/28 04:08:31;;;;;;;8.20;7.40;;;3.80;99.90;;;;;;5053220;28;20207;-58
2021/01/28 04:10:59;;;;;;;7.13;6.43;;;3.80;99.90;;;;;;5052940;28;20305;-59
2021/01/28 04:13:26;;;;;;;11.70;10.43;;;3.80;99.90;;;;;;5052804;28;20286;-60
2021/01/28 04:15:53;;;;;;;10.13;9.13;;;3.80;99.90;;;;;;5052567;28;20670;-59
2021/01/28 04:18:20;;;;;;;10.02;9.02;;;3.80;99.90;;;;;;5052907;28;20644;-58
2021/01/28 04:20:50;;;;;;;9.97;8.93;;;3.80;99.90;;;;;;5052647;28;20208;-58
2021/01/28 04:23:17;;;;;;;9.80;8.80;;;3.80;99.90;;;;;;5052456;28;20244;-56
2021/01/28 04:25:44;;;;;;;12.13;9.88;;;3.80;99.90;;;;;;5052541;28;20243;-58
2021/01/28 04:28:12;;;;;;;14.48;10.68;;;3.80;99.90;;;;;;5052601;28;20244;-59
2021/01/28 04:30:39;;;;;;;11.90;9.63;;;3.80;99.90;;;;;;5051798;28;20426;-58
2021/01/28 04:33:06;;;;;;;13.48;10.05;;;3.80;99.90;;;;;;5064383;28;20215;-59
2021/01/28 04:35:34;;;;;;;12.45;9.82;;;3.80;99.90;;;;;;5072375;28;20219;-57
2021/01/28 04:38:01;;;;;;;13.32;10.30;;;3.80;99.90;;;;;;5072375;28;20205;-55
2021/01/28 04:40:31;;;;;;;15.73;10.52;;;3.80;99.90;;;;;;5072789;28;20235;-55
2021/01/28 04:43:03;;;;;;;12.50;10.20;;;3.80;99.90;;;;;;5072142;28;20219;-55
2021/01/28 04:45:32;;;;;;;12.57;9.57;;;3.70;99.90;;;;;;5072203;28;20307;-56
2021/01/28 04:48:04;;;;;;;15.25;11.02;;;3.70;99.90;;;;;;5072078;28;20203;-56
2021/01/28 04:50:40;;;;;;;14.38;11.00;;;3.70;99.90;;;;;;5071940;28;20768;-56
2021/01/28 04:53:12;;;;;;;15.95;10.38;;;3.80;99.90;;;;;;5073119;28;20279;-55
2021/01/28 04:55:42;;;;;;;13.52;10.45;;;3.70;99.90;;;;;;5071867;28;20215;-58
2021/01/28 04:58:09;;;;;;;16.52;11.55;;;3.70;99.90;;;;;;5071999;28;20211;-57
2021/01/28 05:00:38;;;;;;;17.15;11.85;;;3.70;99.90;;;;;;5071953;28;20207;-57
2021/01/28 05:03:15;;;;;;;19.50;12.90;;;3.70;99.90;;;;;;5071890;28;20298;-53
2021/01/28 05:05:42;;;;;;;16.02;11.93;;;3.70;99.90;;;;;;5071875;28;20249;-55
2021/01/28 05:08:10;;;;;;;13.15;10.52;;;3.80;99.90;;;;;;5071842;28;20368;-58
2021/01/28 05:10:43;;;;;;;19.38;11.57;;;3.80;99.90;;;;;;5071780;28;20234;-54
2021/01/28 05:13:11;;;;;;;17.98;12.15;;;3.80;99.90;;;;;;5266724;22;20449;-52
2021/01/28 05:15:41;;;;;;;18.50;12.23;;;3.80;99.90;;;;;;5051931;28;20242;-57
2021/01/28 05:18:23;;;;;;;13.82;10.23;;;3.80;99.90;;;;;;5051480;28;20208;-58
2021/01/28 05:20:50;;;;;;;20.83;13.80;;;3.80;99.90;;;;;;5054387;28;20266;-60
2021/01/28 05:23:29;;;;;;;11.57;9.70;;;3.90;99.90;;;;;;5051534;28;20302;-55
2021/01/28 05:25:57;;;;;;;22.55;16.95;;;3.90;99.90;;;;;;5054818;28;20624;-54
2021/01/28 05:28:30;;;;;;;14.60;13.15;;;3.90;99.90;;;;;;5051676;28;20235;-55
2021/01/28 05:30:59;;;;;;;15.63;11.93;;;4.00;99.90;;;;;;5185335;22;20244;-54
2021/01/28 05:33:33;;;;;;;12.88;9.70;;;4.00;99.90;;;;;;5051550;28;20274;-57
2021/01/28 05:36:07;;;;;;;11.40;10.20;;;4.00;99.90;;;;;;5051785;28;20212;-57
2021/01/28 05:38:38;;;;;;;9.52;8.52;;;4.10;99.90;;;;;;5051738;28;20295;-54
2021/01/28 05:41:07;;;;;;;9.73;8.77;;;4.10;99.90;;;;;;5051675;28;20200;-58
2021/01/28 05:43:38;;;;;;;9.03;8.13;;;4.20;99.90;;;;;;5051748;28;20604;-52
2021/01/28 05:46:15;;;;;;;9.85;8.50;;;4.20;99.90;;;;;;5051804;28;20211;-52
2021/01/28 05:48:44;;;;;;;8.60;7.70;;;4.30;99.90;;;;;;5051663;28;20661;-53
2021/01/28 05:53:58;;;;;;;8.68;7.80;;;4.30;99.90;;;;;;5089516;22;20251;-52
2021/01/28 05:56:29;;;;;;;7.35;6.43;;;4.40;99.90;;;;;;5051448;28;20207;-55
2021/01/28 05:58:59;;;;;;;8.43;7.10;;;4.40;99.90;;;;;;5051696;28;20238;-51
2021/01/28 06:01:42;;;;;;;8.45;7.22;;;4.50;99.90;;;;;;5051309;28;20219;-52
2021/01/28 06:04:25;;;;;;;10.57;9.52;;;4.60;99.90;;;;;;5051358;28;20612;-53
2021/01/28 06:07:27;;;;;;;8.85;7.50;;;4.60;99.90;;;;;;5051297;28;20299;-53
2021/01/28 06:10:20;;;;;;;9.45;8.55;;;4.70;99.90;;;;;;5051312;28;20227;-50
2021/01/28 06:13:06;;;;;;;8.38;7.57;;;4.80;99.90;;;;;;5041274;28;20215;-56
2021/01/28 06:15:44;;;;;;;7.22;5.75;;;4.90;99.90;;;;;;5051144;28;20208;-57
2021/01/28 06:18:33;;;;;;;4.43;4.03;;;4.90;99.90;;;;;;5051286;28;20208;-54
2021/01/28 06:21:18;;;;;;;5.47;4.68;;;5.00;99.90;;;;;;5051302;28;20240;-57
2021/01/28 06:24:20;;;;;;;4.43;4.03;;;5.00;99.90;;;;;;5184605;22;20267;-56
2021/01/28 06:26:55;;;;;;;4.40;4.03;;;5.00;99.90;;;;;;5030681;28;20219;-55
2021/01/28 06:29:45;;;;;;;4.40;4.00;;;5.00;99.90;;;;;;5031194;28;20236;-52
2021/01/28 06:32:47;;;;;;;4.85;4.20;;;5.00;99.90;;;;;;5032116;28;20209;-55
2021/01/28 06:35:43;;;;;;;10.88;7.25;;;5.00;99.90;;;;;;5034806;28;20208;-53
2021/01/28 06:38:36;;;;;;;3.75;3.45;;;4.90;99.90;;;;;;5036229;28;20232;-52
2021/01/28 06:41:06;;;;;;;4.95;4.45;;;4.90;99.90;;;;;;5035725;28;20240;-54
2021/01/28 06:43:43;;;;;;;4.30;3.90;;;4.90;99.90;;;;;;5035421;28;20217;-55
2021/01/28 06:46:26;;;;;;;3.97;3.65;;;4.90;99.90;;;;;;5035721;28;20212;-58
2021/01/28 06:49:03;;;;;;;11.70;7.25;;;4.90;99.90;;;;;;5037496;28;20254;-57
2021/01/28 06:51:39;;;;;;;27.73;16.30;;;4.90;99.90;;;;;;5034721;28;20342;-57
2021/01/28 06:54:12;;;;;;;8.00;6.13;;;4.90;99.90;;;;;;5034321;28;20209;-58
2021/01/28 06:56:44;;;;;;;5.40;4.90;;;5.00;99.90;;;;;;5035570;28;20225;-55
2021/01/28 06:59:16;;;;;;;5.30;4.80;;;5.00;99.90;;;;;;5034715;28;20300;-54
2021/01/28 07:01:52;;;;;;;12.52;6.88;;;5.10;99.90;;;;;;5034629;28;20209;-56
2021/01/28 07:04:28;;;;;;;18.95;11.15;;;5.10;99.90;;;;;;5034379;28;20208;-52
2021/01/28 07:07:06;;;;;;;29.38;16.73;;;5.10;99.90;;;;;;5034339;28;20216;-51
2021/01/28 07:09:36;;;;;;;32.83;18.63;;;5.20;99.90;;;;;;5034148;28;20737;-57
2021/01/28 07:12:06;;;;;;;22.25;14.18;;;5.20;99.90;;;;;;5034138;28;20208;-54
2021/01/28 07:14:33;;;;;;;19.30;12.88;;;5.30;99.90;;;;;;5034043;28;20744;-56
2021/01/28 07:17:07;;;;;;;6.32;5.72;;;5.30;99.90;;;;;;5033894;28;20205;-50
2021/01/28 07:19:38;;;;;;;11.05;10.02;;;5.40;99.90;;;;;;5034231;28;20212;-57
2021/01/28 07:22:27;;;;;;;7.18;6.47;;;5.50;99.90;;;;;;5034192;28;20334;-56
2021/01/28 07:24:55;;;;;;;8.60;7.50;;;5.60;99.90;;;;;;5033860;28;20246;-50
2021/01/28 07:27:42;;;;;;;6.68;6.07;;;5.60;99.90;;;;;;5033837;28;20208;-53
2021/01/28 07:30:35;;;;;;;9.05;7.10;;;5.70;99.90;;;;;;5033661;28;20286;-53
2021/01/28 07:33:02;;;;;;;7.38;6.68;;;5.70;99.90;;;;;;5033980;28;20279;-50
2021/01/28 07:35:42;;;;;;;6.28;5.57;;;5.70;99.90;;;;;;5033764;28;20508;-53
2021/01/28 07:38:46;;;;;;;9.23;6.75;;;5.60;99.90;;;;;;5033806;28;20212;-53
2021/01/28 07:41:26;;;;;;;7.55;6.38;;;5.70;99.90;;;;;;5033603;28;20200;-54
2021/01/28 07:44:14;;;;;;;7.88;6.65;;;5.70;99.90;;;;;;5033367;28;20244;-53
2021/01/28 07:46:42;;;;;;;8.55;6.13;;;5.70;99.90;;;;;;5033486;28;20251;-51
2021/01/28 07:49:16;;;;;;;6.47;5.88;;;5.80;99.90;;;;;;5033726;28;20370;-51
2021/01/28 07:51:45;;;;;;;6.18;5.57;;;5.80;99.90;;;;;;5033593;28;20236;-55
2021/01/28 07:54:35;;;;;;;10.40;5.77;;;5.80;99.90;;;;;;5033685;28;20291;-55
2021/01/28 07:57:04;;;;;;;10.48;6.80;;;5.80;99.90;;;;;;5033555;28;20251;-56
2021/01/28 07:59:39;;;;;;;8.65;6.88;;;5.80;99.90;;;;;;5033369;28;20300;-52
2021/01/28 08:02:22;;;;;;;9.38;7.60;;;5.80;99.90;;;;;;5033733;28;20299;-55
2021/01/28 08:04:55;;;;;;;12.68;10.90;;;5.80;99.90;;;;;;5033625;28;20219;-55
2021/01/28 08:07:25;;;;;;;9.10;7.93;;;5.80;99.90;;;;;;5033262;28;20217;-56
2021/01/28 08:09:55;;;;;;;9.32;7.07;;;5.80;99.90;;;;;;5033262;28;20333;-57
2021/01/28 08:12:29;;;;;;;8.70;6.82;;;5.80;99.90;;;;;;5033097;28;20251;-57
2021/01/28 08:14:58;;;;;;;7.20;5.93;;;5.80;99.90;;;;;;5033094;28;20266;-57
2021/01/28 08:17:31;;;;;;;6.75;5.55;;;5.90;99.90;;;;;;5032937;28;20299;-57
2021/01/28 08:20:30;;;;;;;9.25;6.20;;;5.90;99.90;;;;;;5033102;28;20234;-57
2021/01/28 08:23:01;;;;;;;7.00;6.30;;;6.00;99.90;;;;;;4952429;29;20215;-53
2021/01/28 08:25:31;;;;;;;8.48;6.35;;;6.00;99.90;;;;;;5017648;28;20282;-54
2021/01/28 08:28:12;;;;;;;8.05;7.35;;;6.00;99.90;;;;;;5032673;28;20219;-56
2021/01/28 08:30:40;;;;;;;13.65;12.18;;;6.00;99.90;;;;;;5032760;28;20316;-52
2021/01/28 08:33:13;;;;;;;7.05;6.35;;;6.00;99.90;;;;;;5032771;28;20288;-53
2021/01/28 08:35:43;;;;;;;7.38;6.20;;;6.00;99.90;;;;;;5032694;28;20303;-54
2021/01/28 08:38:17;;;;;;;5.72;5.13;;;6.00;99.90;;;;;;5032624;28;20219;-55
2021/01/28 08:40:55;;;;;;;9.80;6.47;;;6.00;99.90;;;;;;5032782;28;20255;-53
2021/01/28 08:43:23;;;;;;;8.65;5.75;;;6.00;99.90;;;;;;5032452;28;20208;-56
2021/01/28 08:46:03;;;;;;;5.53;4.03;;;6.00;99.90;;;;;;5032615;28;20249;-52
2021/01/28 08:48:30;;;;;;;4.55;3.85;;;6.10;99.90;;;;;;5032579;28;20576;-54
2021/01/28 08:51:08;;;;;;;3.45;3.15;;;6.00;99.90;;;;;;5032255;28;20231;-54
2021/01/28 08:53:36;;;;;;;5.68;3.35;;;6.00;99.90;;;;;;5032411;28;20236;-53
2021/01/28 08:56:08;;;;;;;3.88;2.42;;;6.00;99.90;;;;;;5031579;28;20646;-55
2021/01/28 08:58:41;;;;;;;2.83;2.50;;;6.10;99.90;;;;;;5032275;28;20300;-55
2021/01/28 09:01:10;;;;;;;3.35;2.70;;;6.20;99.90;;;;;;5032194;28;20686;-58
2021/01/28 09:03:47;;;;;;;3.92;3.20;;;6.10;99.90;;;;;;5032126;28;20271;-54
2021/01/28 09:06:14;;;;;;;3.78;2.90;;;6.10;99.90;;;;;;5032180;28;20209;-53
2021/01/28 09:08:43;;;;;;;6.32;4.18;;;6.10;99.90;;;;;;5031901;28;20253;-51
2021/01/28 09:11:24;;;;;;;2.85;2.65;;;6.00;99.90;;;;;;5032075;28;20591;-52
2021/01/28 09:14:27;;;;;;;5.53;2.35;;;6.00;99.90;;;;;;5031698;28;20219;-52
2021/01/28 09:16:58;;;;;;;2.08;1.88;;;5.90;99.90;;;;;;5032084;28;20231;-54
2021/01/28 09:19:29;;;;;;;2.03;1.70;;;5.90;99.90;;;;;;5031578;28;20209;-56
2021/01/28 09:21:59;;;;;;;2.53;1.15;;;5.90;99.90;;;;;;5031654;28;20208;-55
2021/01/28 09:24:36;;;;;;;1.65;1.55;;;5.90;99.90;;;;;;5031641;28;20666;-53
2021/01/28 09:27:24;;;;;;;1.55;1.20;;;5.90;99.90;;;;;;5031999;28;20247;-55
2021/01/28 09:29:53;;;;;;;1.40;1.30;;;5.90;99.90;;;;;;5031613;28;20754;-54
2021/01/28 09:32:33;;;;;;;1.45;1.35;;;5.90;99.90;;;;;;5031827;28;20215;-57
2021/01/28 09:35:09;;;;;;;2.28;1.42;;;5.90;99.90;;;;;;5031610;28;20667;-51
2021/01/28 09:37:37;;;;;;;3.95;3.50;;;5.90;99.90;;;;;;5032224;28;20291;-56
2021/01/28 09:40:19;;;;;;;2.45;2.25;;;5.90;99.90;;;;;;5031973;28;20299;-56
2021/01/28 09:42:46;;;;;;;2.10;1.83;;;5.90;99.90;;;;;;5031525;28;20259;-56
2021/01/28 09:45:21;;;;;;;3.47;2.75;;;6.00;99.90;;;;;;5031404;28;20687;-54
2021/01/28 09:47:53;;;;;;;2.95;2.03;;;6.00;99.90;;;;;;5031706;28;20212;-54
2021/01/28 09:50:21;;;;;;;3.70;2.83;;;6.00;99.90;;;;;;5031334;28;20695;-55
2021/01/28 09:52:49;;;;;;;3.42;3.13;;;6.00;99.90;;;;;;5031585;28;20287;-55
2021/01/28 09:55:21;;;;;;;2.42;2.05;;;6.10;99.90;;;;;;5031339;28;20236;-52
2021/01/28 09:57:49;;;;;;;2.10;1.90;;;6.10;99.90;;;;;;5031740;28;20193;-54
2021/01/28 10:00:19;;;;;;;2.15;1.83;;;6.10;99.90;;;;;;5031569;28;20619;-55
2021/01/28 10:02:49;;;;;;;2.23;1.40;;;6.10;99.90;;;;;;5031502;28;20292;-52
2021/01/28 10:05:19;;;;;;;1.50;1.37;;;6.20;99.90;;;;;;5031209;28;20212;-51
2021/01/28 10:07:47;;;;;;;1.20;1.10;;;6.20;99.90;;;;;;5033177;28;20217;-52
2021/01/28 10:10:16;;;;;;;1.75;1.40;;;6.20;99.90;;;;;;5035081;28;20323;-53
2021/01/28 10:12:45;;;;;;;1.15;1.05;;;6.20;99.90;;;;;;5035256;28;20209;-55
2021/01/28 10:15:13;;;;;;;5.28;1.50;;;6.20;99.90;;;;;;5035133;28;20240;-51
2021/01/28 10:17:42;;;;;;;2.00;1.80;;;6.20;99.90;;;;;;5034964;28;20694;-53
2021/01/28 10:20:10;;;;;;;1.52;1.40;;;6.20;99.90;;;;;;5035240;28;20593;-56
2021/01/28 10:22:38;;;;;;;2.00;1.63;;;6.20;99.90;;;;;;5034980;28;20230;-52
2021/01/28 10:25:08;;;;;;;1.70;1.35;;;6.30;99.90;;;;;;5035738;28;20240;-52
2021/01/28 10:27:35;;;;;;;1.23;1.13;;;6.30;99.90;;;;;;5035157;28;20247;-52
2021/01/28 10:30:04;;;;;;;1.93;1.70;;;6.30;99.90;;;;;;5035031;28;20500;-58
2021/01/28 10:32:31;;;;;;;1.95;1.80;;;6.30;99.90;;;;;;5035032;28;20612;-58
2021/01/28 10:35:00;;;;;;;2.15;1.45;;;6.40;99.90;;;;;;5035602;28;20213;-59
2021/01/28 10:37:27;;;;;;;1.98;1.30;;;6.40;99.90;;;;;;5034940;28;20212;-56
2021/01/28 10:39:54;;;;;;;1.60;1.30;;;6.50;99.90;;;;;;5034822;28;20217;-58
2021/01/28 10:42:31;;;;;;;1.70;1.60;;;6.50;99.90;;;;;;5037739;28;20732;-58
2021/01/28 10:44:58;;;;;;;2.22;1.40;;;6.50;99.90;;;;;;5034532;28;20652;-53
2021/01/28 10:47:25;;;;;;;1.65;1.52;;;6.50;99.90;;;;;;5034579;28;20247;-52
2021/01/28 10:50:10;;;;;;;2.22;1.48;;;6.40;99.90;;;;;;5034580;28;20232;-52
2021/01/28 10:52:37;;;;;;;1.98;1.27;;;6.40;99.90;;;;;;5034522;28;20577;-54
2021/01/28 10:55:06;;;;;;;2.88;1.48;;;6.40;99.90;;;;;;5034372;28;20215;-57
2021/01/28 10:57:33;;;;;;;1.33;1.20;;;6.30;99.90;;;;;;5034275;28;20663;-54
2021/01/28 11:00:00;;;;;;;1.40;1.13;;;6.30;99.90;;;;;;5034199;28;20639;-50
2021/01/28 11:02:27;;;;;;;1.60;1.13;;;6.30;99.90;;;;;;5034489;28;20208;-52
2021/01/28 11:04:54;;;;;;;2.50;1.08;;;6.30;99.90;;;;;;5034368;28;20319;-53
2021/01/28 11:07:22;;;;;;;1.52;1.00;;;6.30;99.90;;;;;;5034705;28;20579;-55
2021/01/28 11:09:49;;;;;;;1.88;1.00;;;6.30;99.90;;;;;;5033979;28;20255;-54
2021/01/28 11:12:16;;;;;;;2.60;1.83;;;6.30;99.90;;;;;;5033998;28;20323;-55
2021/01/28 11:14:43;;;;;;;1.45;1.02;;;6.30;99.90;;;;;;5033714;28;20312;-57
2021/01/28 11:17:11;;;;;;;1.42;1.10;;;6.30;99.90;;;;;;5034019;28;20240;-57
2021/01/28 11:19:38;;;;;;;3.42;2.03;;;6.30;99.90;;;;;;5033304;28;20216;-56
2021/01/28 11:22:05;;;;;;;3.83;3.43;;;6.30;99.90;;;;;;5034014;28;20213;-56
2021/01/28 11:24:34;;;;;;;1.70;1.20;;;6.30;99.90;;;;;;5033503;28;20754;-56
2021/01/28 11:27:01;;;;;;;1.30;0.93;;;6.30;99.90;;;;;;5033419;28;20390;-58
2021/01/28 11:29:28;;;;;;;0.90;0.77;;;6.40;99.90;;;;;;5033574;28;20213;-58
2021/01/28 11:31:55;;;;;;;1.50;1.40;;;6.40;99.90;;;;;;5033813;28;20228;-59
2021/01/28 11:34:25;;;;;;;5.38;4.88;;;6.30;99.90;;;;;;5033578;28;20312;-60
2021/01/28 11:36:52;;;;;;;1.35;1.20;;;6.30;99.90;;;;;;5033681;28;20223;-58
2021/01/28 11:39:19;;;;;;;1.40;1.30;;;6.40;99.90;;;;;;5033503;28;20304;-59
2021/01/28 11:41:47;;;;;;;1.23;1.13;;;6.50;99.90;;;;;;5033345;28;20340;-57
2021/01/28 11:44:14;;;;;;;2.05;1.83;;;6.50;99.90;;;;;;5033352;28;20679;-56
2021/01/28 11:46:41;;;;;;;2.22;2.03;;;6.50;99.90;;;;;;5034568;28;20686;-55
2021/01/28 11:49:08;;;;;;;2.13;1.42;;;6.50;99.90;;;;;;5033154;28;20682;-54
2021/01/28 11:51:35;;;;;;;1.30;1.20;;;6.50;99.90;;;;;;5033232;28;20264;-57
2021/01/28 11:54:05;;;;;;;1.60;1.45;;;6.60;99.90;;;;;;5033208;28;20259;-55
2021/01/28 11:56:32;;;;;;;2.92;2.70;;;6.60;99.90;;;;;;5034962;28;20466;-56
2021/01/28 11:59:00;;;;;;;3.97;3.53;;;6.60;99.90;;;;;;5034456;28;20315;-52
2021/01/28 12:01:28;;;;;;;2.85;1.80;;;6.60;99.90;;;;;;5033541;28;20228;-52
2021/01/28 12:03:55;;;;;;;2.40;1.48;;;6.60;99.90;;;;;;5033440;28;20287;-56
2021/01/28 12:06:22;;;;;;;1.42;1.10;;;6.60;99.90;;;;;;5034645;28;20553;-57
2021/01/28 12:08:49;;;;;;;1.83;1.50;;;6.70;99.90;;;;;;5033159;28;20343;-54
2021/01/28 12:11:16;;;;;;;3.53;1.13;;;6.80;99.90;;;;;;5032891;28;20260;-55
2021/01/28 12:13:43;;;;;;;2.72;1.10;;;6.90;99.90;;;;;;5033219;28;20629;-57
2021/01/28 12:16:11;;;;;;;1.55;1.35;;;7.00;99.90;;;;;;5033149;28;20220;-58
2021/01/28 12:18:38;;;;;;;1.48;1.38;;;7.10;99.90;;;;;;5033186;28;20213;-57
2021/01/28 12:21:06;;;;;;;1.38;1.27;;;7.10;99.90;;;;;;5032848;28;20201;-55
2021/01/28 12:23:33;;;;;;;1.55;1.45;;;7.20;99.90;;;;;;5033998;28;20233;-58
2021/01/28 12:26:00;;;;;;;1.45;0.93;;;7.20;99.90;;;;;;5033200;28;20324;-59
2021/01/28 12:28:27;;;;;;;1.42;1.33;;;7.20;99.90;;;;;;5032819;28;20211;-56
2021/01/28 12:30:53;;;;;;;1.05;1.05;;;7.20;99.90;;;;;;5031624;28;20225;-58
2021/01/28 12:33:22;;;;;;;1.38;1.15;;;7.10;99.90;;;;;;5032518;28;20231;-58
2021/01/28 12:35:49;;;;;;;2.33;1.20;;;7.10;99.90;;;;;;5032586;28;20208;-54
2021/01/28 12:40:52;;;;;;;1.67;1.08;;;7.00;99.90;;;;;;5031233;28;20250;-55
2021/01/28 12:43:19;;;;;;;1.33;1.00;;;7.00;99.90;;;;;;5032385;28;20299;-56
2021/01/28 12:46:16;;;;;;;2.25;1.00;;;7.00;99.90;;;;;;5042152;28;20243;-51
2021/01/28 12:48:44;;;;;;;1.13;1.05;;;7.10;99.90;;;;;;5032359;28;20287;-55
2021/01/28 12:51:11;;;;;;;2.50;1.55;;;7.10;99.90;;;;;;5032389;28;20233;-57
2021/01/28 12:53:38;;;;;;;1.17;1.08;;;7.30;99.90;;;;;;5032211;28;20243;-57
2021/01/28 12:56:06;;;;;;;1.77;1.10;;;7.40;99.90;;;;;;5031805;28;20295;-61
2021/01/28 12:58:33;;;;;;;1.75;1.38;;;7.50;99.90;;;;;;5031756;28;20291;-58
2021/01/28 13:01:00;;;;;;;1.70;1.60;;;7.70;99.90;;;;;;5031745;28;20255;-58
2021/01/28 13:03:27;;;;;;;1.10;1.00;;;7.90;99.90;;;;;;5031699;28;20244;-59
2021/01/28 13:05:55;;;;;;;0.90;0.90;;;8.00;99.90;;;;;;5032017;28;20631;-60
2021/01/28 13:08:22;;;;;;;1.15;1.00;;;8.00;99.90;;;;;;5032037;28;20236;-60
2021/01/28 13:10:48;;;;;;;1.38;1.10;;;8.10;99.90;;;;;;5031904;28;20314;-60
2021/01/28 13:13:16;;;;;;;2.50;1.92;;;8.00;99.90;;;;;;5031755;28;20627;-61
2021/01/28 13:15:43;;;;;;;2.78;2.33;;;8.00;99.90;;;;;;5031313;28;20303;-60
2021/01/28 13:18:12;;;;;;;4.45;3.10;;;8.00;99.90;;;;;;5031788;28;20295;-60